Dame Des Tropiques — FQJE — position and weather

sailwx.info

Track history (hours):
 
Tides and Currents Weather Stations Pressure Air Temp Water Temp Dewpoint Dewpoint Depression Visibility Wind Speed Wind Dir Waves Ship Positions

Dame Des Tropiques

Last reported at 2014-Jul-29 13:27 UTC. Time now 2014-Aug-01 11:54 UTC.
Position N 38°04' E 013°55'.

Length 28 m.

Type: Sailing vessel. MMSI: 347002100.

Date/timePositionNaut miles runAvg speedWind from/ knotsBaromVisibWave heightAir tempDewpointWater temp
2014-Jul-29 13:27N 38°04' E 013°55'6 5.8
2014-Jul-29 12:28N 38°04' E 013°48'5 5.1
2014-Jul-29 11:33N 38°05' E 013°42'8 0.5
2014-Jul-28 20:06N 38°07' E 013°32'3 6.1
2014-Jul-28 19:32N 38°08' E 013°28'5 3.9
2014-Jul-28 18:19N 38°09' E 013°22'0 0.0
2014-Jul-28 17:16N 38°09' E 013°22'0 0.0
2014-Jul-28 16:22N 38°09' E 013°22'0 0.0
2014-Jul-28 15:28N 38°09' E 013°22'0 0.0
2014-Jul-28 14:31N 38°09' E 013°22'0 0.0
2014-Jul-28 13:31N 38°09' E 013°22'0 0.0
2014-Jul-28 12:25N 38°09' E 013°22'0 0.0
2014-Jul-28 11:28N 38°09' E 013°22'0 0.0
2014-Jul-28 09:31N 38°09' E 013°22'0 0.0
2014-Jul-28 08:28N 38°09' E 013°22'0 0.0
2014-Jul-28 06:31N 38°09' E 013°22'0 0.0
2014-Jul-28 05:25N 38°09' E 013°22'0 0.0
2014-Jul-28 04:31N 38°09' E 013°22'0 0.0
2014-Jul-28 03:22N 38°09' E 013°22'0 0.0
2014-Jul-28 02:31N 38°09' E 013°22'0 0.0
2014-Jul-28 01:31N 38°09' E 013°22'0 0.0
2014-Jul-28 00:31N 38°09' E 013°22'0 0.0
2014-Jul-27 23:22N 38°09' E 013°22'0 0.0
2014-Jul-27 22:10N 38°09' E 013°22'0 0.0
2014-Jul-27 21:19N 38°09' E 013°22'0 0.0
2014-Jul-27 20:31N 38°09' E 013°22'0 0.0
2014-Jul-27 19:31N 38°09' E 013°22'0 0.0
2014-Jul-27 18:29N 38°09' E 013°22'0 0.0
2014-Jul-27 17:32N 38°09' E 013°22'0 0.0
2014-Jul-27 16:23N 38°09' E 013°22'0 0.0
2014-Jul-27 15:32N 38°09' E 013°22'0 0.0
2014-Jul-27 14:32N 38°09' E 013°22'0 0.0
2014-Jul-27 13:32N 38°09' E 013°22'0 0.1
2014-Jul-27 12:33N 38°09' E 013°22'0 0.2
2014-Jul-27 11:30N 38°09' E 013°22'0 0.0
2014-Jul-27 10:21N 38°09' E 013°22'0 0.0
2014-Jul-27 08:33N 38°09' E 013°22'0 0.0
2014-Jul-27 07:33N 38°09' E 013°22'0 0.0
2014-Jul-27 06:33N 38°09' E 013°22'0 0.0
2014-Jul-27 05:33N 38°09' E 013°22'0 0.0
2014-Jul-27 04:27N 38°09' E 013°22'0 0.0
2014-Jul-27 03:30N 38°09' E 013°22'0 0.0
2014-Jul-27 02:30N 38°09' E 013°22'0 0.0
2014-Jul-27 01:33N 38°09' E 013°22'0 0.0
2014-Jul-27 00:33N 38°09' E 013°22'0 0.0
2014-Jul-26 23:33N 38°09' E 013°22'0 0.0
2014-Jul-26 22:33N 38°09' E 013°23'0 0.0
2014-Jul-26 21:24N 38°09' E 013°23'0 0.0
2014-Jul-26 20:33N 38°09' E 013°23'0 0.0
2014-Jul-26 19:30N 38°09' E 013°23'0 0.0
2014-Jul-26 18:33N 38°09' E 013°22'0 0.1
2014-Jul-26 17:27N 38°09' E 013°22'0 0.0
2014-Jul-26 16:33N 38°09' E 013°22'0 0.0
2014-Jul-26 15:24N 38°09' E 013°22'0 0.0
2014-Jul-26 14:33N 38°09' E 013°22'0 0.0
2014-Jul-26 04:30N 38°09' E 013°22'0 0.0
2014-Jul-26 03:27N 38°09' E 013°22'0 0.0
2014-Jul-26 02:30N 38°09' E 013°22'0 0.0
2014-Jul-26 01:33N 38°09' E 013°22'0 0.0
2014-Jul-26 00:24N 38°09' E 013°22'0 0.0
2014-Jul-25 23:33N 38°09' E 013°22'0 0.0
2014-Jul-25 22:33N 38°09' E 013°22'0 0.0
2014-Jul-25 21:30N 38°09' E 013°22'0 0.0
2014-Jul-25 20:21N 38°09' E 013°22'0 0.0
2014-Jul-25 19:33N 38°09' E 013°22'0 0.0
2014-Jul-25 18:21N 38°09' E 013°22'0 0.0
2014-Jul-25 17:33N 38°09' E 013°22'0 0.0
2014-Jul-25 16:30N 38°09' E 013°22'0 0.0
2014-Jul-25 15:27N 38°09' E 013°22'0 0.0
2014-Jul-25 14:33N 38°09' E 013°22'0 0.0
2014-Jul-25 13:21N 38°09' E 013°22'0 0.0
2014-Jul-25 12:27N 38°09' E 013°22'0 0.0
2014-Jul-25 11:27N 38°09' E 013°22'0 0.0
2014-Jul-25 10:33N 38°09' E 013°22'0 0.0
2014-Jul-25 09:33N 38°09' E 013°22'0 0.0
2014-Jul-25 08:33N 38°09' E 013°22'0 0.0
2014-Jul-25 07:30N 38°09' E 013°22'0 0.0
2014-Jul-25 06:33N 38°09' E 013°22'0 0.0
2014-Jul-25 05:27N 38°09' E 013°22'0 0.0
2014-Jul-25 04:33N 38°09' E 013°22'0 0.0
2014-Jul-25 03:24N 38°09' E 013°22'0 0.0
2014-Jul-25 00:18N 38°09' E 013°22'0 0.0
2014-Jul-24 23:18N 38°09' E 013°22'0 0.0
2014-Jul-24 20:09N 38°09' E 013°22'0 0.0
2014-Jul-24 19:30N 38°09' E 013°22'0 0.0
2014-Jul-24 18:33N 38°09' E 013°22'2 2.4
2014-Jul-24 17:33N 38°08' E 013°25'6 0.2
2014-Jul-23 10:21N 38°07' E 013°32'4 4.4
2014-Jul-23 09:30N 38°10' E 013°29'5 4.7
2014-Jul-23 08:31N 38°09' E 013°23'0 0.2
2014-Jul-23 07:29N 38°09' E 013°23'0 0.0
2014-Jul-23 06:29N 38°09' E 013°23'0 0.0
2014-Jul-23 05:32N 38°09' E 013°23'0 0.0
2014-Jul-23 04:14N 38°09' E 013°23'0 0.0
2014-Jul-23 03:08N 38°09' E 013°23'0 0.0
2014-Jul-23 02:30N 38°09' E 013°23'0 0.0
2014-Jul-22 23:32N 38°09' E 013°23'0 0.0
2014-Jul-22 22:06N 38°09' E 013°23'0 0.0
2014-Jul-22 20:09N 38°09' E 013°23'0 0.0
2014-Jul-22 19:33N 38°09' E 013°23'0 0.0
2014-Jul-22 18:33N 38°09' E 013°23'0 0.0
2014-Jul-22 16:33N 38°09' E 013°23'0 0.0
2014-Jul-22 15:33N 38°09' E 013°23'0 0.0
2014-Jul-22 14:33N 38°09' E 013°23'3 3.4
2014-Jul-22 13:31N 38°12' E 013°20'0 0.0
2014-Jul-22 12:28N 38°12' E 013°20'0 0.0
2014-Jul-22 11:31N 38°12' E 013°20'0 0.0
2014-Jul-22 10:28N 38°12' E 013°20'0 0.0
2014-Jul-22 09:28N 38°12' E 013°20'0 0.0
2014-Jul-22 08:31N 38°12' E 013°20'0 0.0
2014-Jul-22 07:31N 38°12' E 013°20'0 0.0
2014-Jul-22 06:31N 38°12' E 013°20'0 0.0
2014-Jul-22 05:28N 38°12' E 013°20'0 0.0
2014-Jul-22 04:31N 38°12' E 013°20'0 0.0
2014-Jul-22 03:31N 38°12' E 013°20'0 0.0
2014-Jul-22 02:28N 38°12' E 013°20'0 0.0
2014-Jul-22 01:28N 38°12' E 013°20'0 0.0
2014-Jul-22 00:31N 38°12' E 013°20'0 0.0
2014-Jul-21 23:28N 38°12' E 013°20'0 0.0
2014-Jul-21 22:31N 38°12' E 013°20'0 0.0
2014-Jul-21 21:28N 38°12' E 013°20'0 0.0
2014-Jul-21 20:28N 38°12' E 013°20'0 0.0
2014-Jul-21 20:16N 38°12' E 013°20'0 0.0
2014-Jul-21 19:31N 38°12' E 013°20'0 0.0
2014-Jul-21 18:31N 38°12' E 013°20'0 0.0
2014-Jul-21 17:31N 38°12' E 013°20'0 0.0
2014-Jul-21 16:31N 38°12' E 013°20'0 0.0
2014-Jul-21 15:31N 38°12' E 013°20'0 0.0
2014-Jul-21 14:31N 38°12' E 013°20'0 0.0
2014-Jul-21 13:31N 38°12' E 013°20'0 0.0
2014-Jul-21 12:31N 38°12' E 013°20'0 0.0
2014-Jul-21 11:31N 38°12' E 013°20'0 0.0
2014-Jul-21 10:28N 38°12' E 013°20'0 0.0
2014-Jul-21 09:31N 38°12' E 013°20'0 0.0
2014-Jul-21 08:28N 38°12' E 013°20'0 0.0
2014-Jul-21 07:31N 38°12' E 013°20'0 0.4
2014-Jul-21 06:33N 38°12' E 013°21'0 0.3
2014-Jul-21 05:31N 38°12' E 013°21'0 0.0
2014-Jul-21 04:34N 38°12' E 013°21'0 0.0
2014-Jul-21 03:34N 38°12' E 013°21'0 0.0
2014-Jul-21 02:34N 38°12' E 013°21'0 0.0
2014-Jul-21 01:31N 38°12' E 013°21'0 0.0
2014-Jul-21 00:28N 38°12' E 013°21'0 0.0
2014-Jul-20 23:31N 38°12' E 013°21'2 2.2
2014-Jul-20 22:33N 38°14' E 013°20'7 6.4
2014-Jul-20 21:31N 38°14' E 013°11'47 1.6
2014-Jul-19 16:14N 37°58' E 012°15'  
Track history (hours):
 
Tides and Currents Weather Stations Pressure Air Temp Water Temp Dewpoint Dewpoint Depression Visibility Wind Speed Wind Dir Waves Ship Positions

Dame Des Tropiques

Last reported at 2014-Jul-29 13:27 UTC. Time now 2014-Aug-01 11:54 UTC.
Position N 38°04' E 013°55'.

Length 28 m.

Type: Sailing vessel. MMSI: 347002100.

Date/timePositionNaut miles runAvg speedWind from/ knotsBaromVisibWave heightAir tempDewpointWater temp
2014-Jul-29 13:27N 38°04' E 013°55'6 5.8
2014-Jul-29 12:28N 38°04' E 013°48'5 5.1
2014-Jul-29 11:33N 38°05' E 013°42'8 0.5
2014-Jul-28 20:06N 38°07' E 013°32'3 6.1
2014-Jul-28 19:32N 38°08' E 013°28'5 3.9
2014-Jul-28 18:19N 38°09' E 013°22'0 0.0
2014-Jul-28 17:16N 38°09' E 013°22'0 0.0
2014-Jul-28 16:22N 38°09' E 013°22'0 0.0
2014-Jul-28 15:28N 38°09' E 013°22'0 0.0
2014-Jul-28 14:31N 38°09' E 013°22'0 0.0
2014-Jul-28 13:31N 38°09' E 013°22'0 0.0
2014-Jul-28 12:25N 38°09' E 013°22'0 0.0
2014-Jul-28 11:28N 38°09' E 013°22'0 0.0
2014-Jul-28 09:31N 38°09' E 013°22'0 0.0
2014-Jul-28 08:28N 38°09' E 013°22'0 0.0
2014-Jul-28 06:31N 38°09' E 013°22'0 0.0
2014-Jul-28 05:25N 38°09' E 013°22'0 0.0
2014-Jul-28 04:31N 38°09' E 013°22'0 0.0
2014-Jul-28 03:22N 38°09' E 013°22'0 0.0
2014-Jul-28 02:31N 38°09' E 013°22'0 0.0
2014-Jul-28 01:31N 38°09' E 013°22'0 0.0
2014-Jul-28 00:31N 38°09' E 013°22'0 0.0
2014-Jul-27 23:22N 38°09' E 013°22'0 0.0
2014-Jul-27 22:10N 38°09' E 013°22'0 0.0
2014-Jul-27 21:19N 38°09' E 013°22'0 0.0
2014-Jul-27 20:31N 38°09' E 013°22'0 0.0
2014-Jul-27 19:31N 38°09' E 013°22'0 0.0
2014-Jul-27 18:29N 38°09' E 013°22'0 0.0
2014-Jul-27 17:32N 38°09' E 013°22'0 0.0
2014-Jul-27 16:23N 38°09' E 013°22'0 0.0
2014-Jul-27 15:32N 38°09' E 013°22'0 0.0
2014-Jul-27 14:32N 38°09' E 013°22'0 0.0
2014-Jul-27 13:32N 38°09' E 013°22'0 0.1
2014-Jul-27 12:33N 38°09' E 013°22'0 0.2
2014-Jul-27 11:30N 38°09' E 013°22'0 0.0
2014-Jul-27 10:21N 38°09' E 013°22'0 0.0
2014-Jul-27 08:33N 38°09' E 013°22'0 0.0
2014-Jul-27 07:33N 38°09' E 013°22'0 0.0
2014-Jul-27 06:33N 38°09' E 013°22'0 0.0
2014-Jul-27 05:33N 38°09' E 013°22'0 0.0
2014-Jul-27 04:27N 38°09' E 013°22'0 0.0
2014-Jul-27 03:30N 38°09' E 013°22'0 0.0
2014-Jul-27 02:30N 38°09' E 013°22'0 0.0
2014-Jul-27 01:33N 38°09' E 013°22'0 0.0
2014-Jul-27 00:33N 38°09' E 013°22'0 0.0
2014-Jul-26 23:33N 38°09' E 013°22'0 0.0
2014-Jul-26 22:33N 38°09' E 013°23'0 0.0
2014-Jul-26 21:24N 38°09' E 013°23'0 0.0
2014-Jul-26 20:33N 38°09' E 013°23'0 0.0
2014-Jul-26 19:30N 38°09' E 013°23'0 0.0
2014-Jul-26 18:33N 38°09' E 013°22'0 0.1
2014-Jul-26 17:27N 38°09' E 013°22'0 0.0
2014-Jul-26 16:33N 38°09' E 013°22'0 0.0
2014-Jul-26 15:24N 38°09' E 013°22'0 0.0
2014-Jul-26 14:33N 38°09' E 013°22'0 0.0
2014-Jul-26 04:30N 38°09' E 013°22'0 0.0
2014-Jul-26 03:27N 38°09' E 013°22'0 0.0
2014-Jul-26 02:30N 38°09' E 013°22'0 0.0
2014-Jul-26 01:33N 38°09' E 013°22'0 0.0
2014-Jul-26 00:24N 38°09' E 013°22'0 0.0
2014-Jul-25 23:33N 38°09' E 013°22'0 0.0
2014-Jul-25 22:33N 38°09' E 013°22'0 0.0
2014-Jul-25 21:30N 38°09' E 013°22'0 0.0
2014-Jul-25 20:21N 38°09' E 013°22'0 0.0
2014-Jul-25 19:33N 38°09' E 013°22'0 0.0
2014-Jul-25 18:21N 38°09' E 013°22'0 0.0
2014-Jul-25 17:33N 38°09' E 013°22'0 0.0
2014-Jul-25 16:30N 38°09' E 013°22'0 0.0
2014-Jul-25 15:27N 38°09' E 013°22'0 0.0
2014-Jul-25 14:33N 38°09' E 013°22'0 0.0
2014-Jul-25 13:21N 38°09' E 013°22'0 0.0
2014-Jul-25 12:27N 38°09' E 013°22'0 0.0
2014-Jul-25 11:27N 38°09' E 013°22'0 0.0
2014-Jul-25 10:33N 38°09' E 013°22'0 0.0
2014-Jul-25 09:33N 38°09' E 013°22'0 0.0
2014-Jul-25 08:33N 38°09' E 013°22'0 0.0
2014-Jul-25 07:30N 38°09' E 013°22'0 0.0
2014-Jul-25 06:33N 38°09' E 013°22'0 0.0
2014-Jul-25 05:27N 38°09' E 013°22'0 0.0
2014-Jul-25 04:33N 38°09' E 013°22'0 0.0
2014-Jul-25 03:24N 38°09' E 013°22'0 0.0
2014-Jul-25 00:18N 38°09' E 013°22'0 0.0
2014-Jul-24 23:18N 38°09' E 013°22'0 0.0
2014-Jul-24 20:09N 38°09' E 013°22'0 0.0
2014-Jul-24 19:30N 38°09' E 013°22'0 0.0
2014-Jul-24 18:33N 38°09' E 013°22'2 2.4
2014-Jul-24 17:33N 38°08' E 013°25'6 0.2
2014-Jul-23 10:21N 38°07' E 013°32'4 4.4
2014-Jul-23 09:30N 38°10' E 013°29'5 4.7
2014-Jul-23 08:31N 38°09' E 013°23'0 0.2
2014-Jul-23 07:29N 38°09' E 013°23'0 0.0
2014-Jul-23 06:29N 38°09' E 013°23'0 0.0
2014-Jul-23 05:32N 38°09' E 013°23'0 0.0
2014-Jul-23 04:14N 38°09' E 013°23'0 0.0
2014-Jul-23 03:08N 38°09' E 013°23'0 0.0
2014-Jul-23 02:30N 38°09' E 013°23'0 0.0
2014-Jul-22 23:32N 38°09' E 013°23'0 0.0
2014-Jul-22 22:06N 38°09' E 013°23'0 0.0
2014-Jul-22 20:09N 38°09' E 013°23'0 0.0
2014-Jul-22 19:33N 38°09' E 013°23'0 0.0
2014-Jul-22 18:33N 38°09' E 013°23'0 0.0
2014-Jul-22 16:33N 38°09' E 013°23'0 0.0
2014-Jul-22 15:33N 38°09' E 013°23'0 0.0
2014-Jul-22 14:33N 38°09' E 013°23'3 3.4
2014-Jul-22 13:31N 38°12' E 013°20'0 0.0
2014-Jul-22 12:28N 38°12' E 013°20'0 0.0
2014-Jul-22 11:31N 38°12' E 013°20'0 0.0
2014-Jul-22 10:28N 38°12' E 013°20'0 0.0
2014-Jul-22 09:28N 38°12' E 013°20'0 0.0
2014-Jul-22 08:31N 38°12' E 013°20'0 0.0
2014-Jul-22 07:31N 38°12' E 013°20'0 0.0
2014-Jul-22 06:31N 38°12' E 013°20'0 0.0
2014-Jul-22 05:28N 38°12' E 013°20'0 0.0
2014-Jul-22 04:31N 38°12' E 013°20'0 0.0
2014-Jul-22 03:31N 38°12' E 013°20'0 0.0
2014-Jul-22 02:28N 38°12' E 013°20'0 0.0
2014-Jul-22 01:28N 38°12' E 013°20'0 0.0
2014-Jul-22 00:31N 38°12' E 013°20'0 0.0
2014-Jul-21 23:28N 38°12' E 013°20'0 0.0
2014-Jul-21 22:31N 38°12' E 013°20'0 0.0
2014-Jul-21 21:28N 38°12' E 013°20'0 0.0
2014-Jul-21 20:28N 38°12' E 013°20'0 0.0
2014-Jul-21 20:16N 38°12' E 013°20'0 0.0
2014-Jul-21 19:31N 38°12' E 013°20'0 0.0
2014-Jul-21 18:31N 38°12' E 013°20'0 0.0
2014-Jul-21 17:31N 38°12' E 013°20'0 0.0
2014-Jul-21 16:31N 38°12' E 013°20'0 0.0
2014-Jul-21 15:31N 38°12' E 013°20'0 0.0
2014-Jul-21 14:31N 38°12' E 013°20'0 0.0
2014-Jul-21 13:31N 38°12' E 013°20'0 0.0
2014-Jul-21 12:31N 38°12' E 013°20'0 0.0
2014-Jul-21 11:31N 38°12' E 013°20'0 0.0
2014-Jul-21 10:28N 38°12' E 013°20'0 0.0
2014-Jul-21 09:31N 38°12' E 013°20'0 0.0
2014-Jul-21 08:28N 38°12' E 013°20'0 0.0
2014-Jul-21 07:31N 38°12' E 013°20'0 0.4
2014-Jul-21 06:33N 38°12' E 013°21'0 0.3
2014-Jul-21 05:31N 38°12' E 013°21'0 0.0
2014-Jul-21 04:34N 38°12' E 013°21'0 0.0
2014-Jul-21 03:34N 38°12' E 013°21'0 0.0
2014-Jul-21 02:34N 38°12' E 013°21'0 0.0
2014-Jul-21 01:31N 38°12' E 013°21'0 0.0
2014-Jul-21 00:28N 38°12' E 013°21'0 0.0
2014-Jul-20 23:31N 38°12' E 013°21'2 2.2
2014-Jul-20 22:33N 38°14' E 013°20'7 6.4
2014-Jul-20 21:31N 38°14' E 013°11'47 1.6
2014-Jul-19 16:14N 37°58' E 012°15'  

Dump ship's entire track history